Time;durP1;ratioP1;P1;durP2;ratioP2;P2;SDS_P1;SDS_P2;PMS_P1;PMS_P2;Temp;Humidity;BMP_temperature;BMP_pressure;BME280_temperature;BME280_humidity;BME280_pressure;Samples;Min_cycle;Max_cycle;Signal;HPM_P1;HPM_P2
2021/10/20 00:01:10;;;;;;;15.30;8.48;;;;;;;;;;5071040;28;20082;-64
2021/10/20 00:03:36;;;;;;;15.38;8.93;;;;;;;;;;5071199;28;20024;-65
2021/10/20 00:06:02;;;;;;;14.52;9.02;;;;;;;;;;5069976;28;20116;-63
2021/10/20 00:08:28;;;;;;;16.05;8.52;;;;;;;;;;5071072;28;20426;-63
2021/10/20 00:10:54;;;;;;;17.23;9.45;;;;;;;;;;5071020;28;20037;-63
2021/10/20 00:13:21;;;;;;;16.10;8.60;;;;;;;;;;5070978;28;20110;-63
2021/10/20 00:15:48;;;;;;;13.82;8.68;;;;;;;;;;5070854;28;20037;-63
2021/10/20 00:18:15;;;;;;;16.80;8.75;;;;;;;;;;5070939;28;20048;-63
2021/10/20 00:20:41;;;;;;;17.65;10.02;;;;;;;;;;5069556;28;20050;-63
2021/10/20 00:23:09;;;;;;;15.07;8.93;;;;;;;;;;5070856;28;20012;-63
2021/10/20 00:25:35;;;;;;;18.63;9.45;;;;;;;;;;5051485;28;20387;-64
2021/10/20 00:28:01;;;;;;;15.65;9.95;;;;;;;;;;5050898;28;20104;-64
2021/10/20 00:30:27;;;;;;;16.02;9.55;;;;;;;;;;5051145;28;20029;-63
2021/10/20 00:32:54;;;;;;;16.10;9.45;;;;;;;;;;5050795;28;20044;-63
2021/10/20 00:35:20;;;;;;;15.18;9.45;;;;;;;;;;5050927;28;20040;-63
2021/10/20 00:37:46;;;;;;;13.15;9.48;;;;;;;;;;5050787;28;20021;-64
2021/10/20 00:40:12;;;;;;;15.55;10.50;;;;;;;;;;5050831;28;20033;-63
2021/10/20 00:42:38;;;;;;;16.27;10.13;;;;;;;;;;5050854;28;20028;-62
2021/10/20 00:45:05;;;;;;;17.10;10.10;;;;;;;;;;5050791;28;20082;-63
2021/10/20 00:47:32;;;;;;;18.13;10.30;;;;;;;;;;5034518;28;20085;-62
2021/10/20 00:49:58;;;;;;;17.42;9.90;;;;;;;;;;5030494;28;20046;-64
2021/10/20 00:52:25;;;;;;;16.63;9.80;;;;;;;;;;5030948;28;20025;-63
2021/10/20 00:54:53;;;;;;;17.70;10.13;;;;;;;;;;5030674;28;20519;-65
2021/10/20 00:57:19;;;;;;;19.65;10.80;;;;;;;;;;5030646;28;20029;-63
2021/10/20 00:59:45;;;;;;;16.77;10.40;;;;;;;;;;5030798;28;20500;-63
2021/10/20 01:02:12;;;;;;;20.25;11.20;;;;;;;;;;5029443;28;20025;-64
2021/10/20 01:04:38;;;;;;;16.88;10.27;;;;;;;;;;5030679;28;20029;-64
2021/10/20 01:07:05;;;;;;;18.08;10.52;;;;;;;;;;5030820;28;20022;-63
2021/10/20 01:09:31;;;;;;;15.38;9.68;;;;;;;;;;5030247;28;20038;-63
2021/10/20 01:11:57;;;;;;;15.88;10.25;;;;;;;;;;5030594;28;20033;-64
2021/10/20 01:14:23;;;;;;;16.23;9.93;;;;;;;;;;5031764;28;20017;-63
2021/10/20 01:16:49;;;;;;;16.63;10.18;;;;;;;;;;5032639;28;20022;-63
2021/10/20 01:19:16;;;;;;;19.38;10.90;;;;;;;;;;5033885;28;20132;-63
2021/10/20 01:21:43;;;;;;;15.27;9.93;;;;;;;;;;5033813;28;20033;-63
2021/10/20 01:24:09;;;;;;;18.85;10.73;;;;;;;;;;5053677;28;20078;-63
2021/10/20 01:26:35;;;;;;;16.70;10.90;;;;;;;;;;5053618;28;20028;-63
2021/10/20 01:29:02;;;;;;;19.30;11.20;;;;;;;;;;5053620;28;20476;-63
2021/10/20 01:31:28;;;;;;;18.42;10.93;;;;;;;;;;5053717;28;20139;-64
2021/10/20 01:33:54;;;;;;;18.40;10.75;;;;;;;;;;5053914;28;20052;-63
2021/10/20 01:36:20;;;;;;;16.95;10.13;;;;;;;;;;5053885;28;20512;-64
2021/10/20 01:38:48;;;;;;;16.38;10.63;;;;;;;;;;5053732;28;20053;-63
2021/10/20 01:41:15;;;;;;;21.38;10.00;;;;;;;;;;5053756;28;20017;-63
2021/10/20 01:43:41;;;;;;;16.77;10.43;;;;;;;;;;5053568;28;20083;-63
2021/10/20 01:46:07;;;;;;;18.88;10.68;;;;;;;;;;5053635;28;20104;-63
2021/10/20 01:48:33;;;;;;;16.55;10.55;;;;;;;;;;5053077;28;20049;-64
2021/10/20 01:51:00;;;;;;;20.20;10.30;;;;;;;;;;5053369;28;20040;-63
2021/10/20 01:53:26;;;;;;;16.52;10.40;;;;;;;;;;5053316;28;20023;-63
2021/10/20 01:55:52;;;;;;;17.35;10.57;;;;;;;;;;5051990;28;20033;-63
2021/10/20 01:58:18;;;;;;;15.07;10.02;;;;;;;;;;5053158;28;20070;-64
2021/10/20 02:00:45;;;;;;;15.32;10.20;;;;;;;;;;5053140;28;20086;-65
2021/10/20 02:03:11;;;;;;;16.45;10.07;;;;;;;;;;5053081;28;20041;-64
2021/10/20 02:05:37;;;;;;;16.40;10.05;;;;;;;;;;5053111;28;20025;-64
2021/10/20 02:08:03;;;;;;;17.70;10.05;;;;;;;;;;5053053;28;20048;-63
2021/10/20 02:10:30;;;;;;;16.73;10.70;;;;;;;;;;5052927;28;20174;-64
2021/10/20 02:12:56;;;;;;;17.25;10.55;;;;;;;;;;5053162;28;20100;-61
2021/10/20 02:15:22;;;;;;;16.98;10.75;;;;;;;;;;5051671;28;20021;-62
2021/10/20 02:17:48;;;;;;;17.80;10.05;;;;;;;;;;5052757;28;20464;-62
2021/10/20 02:20:15;;;;;;;14.80;9.75;;;;;;;;;;5051732;28;20044;-62
2021/10/20 02:22:42;;;;;;;16.63;10.70;;;;;;;;;;5052809;28;20533;-63
2021/10/20 02:25:09;;;;;;;15.77;9.98;;;;;;;;;;5051350;28;20049;-63
2021/10/20 02:27:35;;;;;;;17.88;11.15;;;;;;;;;;5052618;28;20504;-62
2021/10/20 02:30:01;;;;;;;13.80;9.57;;;;;;;;;;5052430;28;20033;-63
2021/10/20 02:32:27;;;;;;;16.75;10.40;;;;;;;;;;5051275;28;20021;-62
2021/10/20 02:34:53;;;;;;;18.05;10.88;;;;;;;;;;5052511;28;20029;-64
2021/10/20 02:37:19;;;;;;;19.85;11.32;;;;;;;;;;5052615;28;20025;-63
2021/10/20 02:39:45;;;;;;;17.23;10.10;;;;;;;;;;5052404;28;20035;-63
2021/10/20 02:42:12;;;;;;;18.60;10.10;;;;;;;;;;5052521;28;20031;-63
2021/10/20 02:44:38;;;;;;;17.98;10.38;;;;;;;;;;5052409;28;20047;-63
2021/10/20 02:47:04;;;;;;;17.38;10.95;;;;;;;;;;5052033;28;20029;-63
2021/10/20 02:49:30;;;;;;;18.13;10.20;;;;;;;;;;5052014;28;20048;-63
2021/10/20 02:51:56;;;;;;;16.20;10.23;;;;;;;;;;5052199;28;20060;-63
2021/10/20 02:54:22;;;;;;;19.20;11.05;;;;;;;;;;5052342;28;20021;-63
2021/10/20 02:56:48;;;;;;;15.75;10.30;;;;;;;;;;5052055;28;20021;-63
2021/10/20 02:59:15;;;;;;;16.58;10.48;;;;;;;;;;5051832;28;20021;-63
2021/10/20 03:01:41;;;;;;;16.00;10.38;;;;;;;;;;5052007;28;20032;-63
2021/10/20 03:04:07;;;;;;;16.55;10.40;;;;;;;;;;5052042;28;20040;-62
2021/10/20 03:06:33;;;;;;;17.75;10.27;;;;;;;;;;5052237;28;20025;-64
2021/10/20 03:08:59;;;;;;;18.65;10.25;;;;;;;;;;5052122;28;20666;-65
2021/10/20 03:11:25;;;;;;;17.17;10.52;;;;;;;;;;5051866;28;20040;-63
2021/10/20 03:13:52;;;;;;;15.48;9.93;;;;;;;;;;5051774;28;20622;-63
2021/10/20 03:16:18;;;;;;;16.83;10.13;;;;;;;;;;5051982;28;20036;-63
2021/10/20 03:18:44;;;;;;;18.35;10.52;;;;;;;;;;5051691;28;20045;-65
2021/10/20 03:21:10;;;;;;;15.77;10.52;;;;;;;;;;5052116;28;20028;-63
2021/10/20 03:23:36;;;;;;;17.50;9.93;;;;;;;;;;5049963;28;20037;-62
2021/10/20 03:26:02;;;;;;;15.90;9.65;;;;;;;;;;5051727;28;20028;-63
2021/10/20 03:28:28;;;;;;;16.13;9.73;;;;;;;;;;5051496;28;20013;-63
2021/10/20 03:30:54;;;;;;;15.10;10.07;;;;;;;;;;5051694;28;20507;-63
2021/10/20 03:33:20;;;;;;;16.42;10.27;;;;;;;;;;5051699;28;20021;-63
2021/10/20 03:35:46;;;;;;;13.90;9.15;;;;;;;;;;5051362;28;20471;-63
2021/10/20 03:38:12;;;;;;;18.17;10.45;;;;;;;;;;5051696;28;20021;-63
2021/10/20 03:40:38;;;;;;;16.55;10.18;;;;;;;;;;5051322;28;20060;-63
2021/10/20 03:43:05;;;;;;;15.00;9.90;;;;;;;;;;5051491;28;20025;-63
2021/10/20 03:45:31;;;;;;;15.88;10.38;;;;;;;;;;5049972;28;20087;-64
2021/10/20 03:47:57;;;;;;;18.88;10.60;;;;;;;;;;5051208;28;20025;-63
2021/10/20 03:50:23;;;;;;;15.65;9.35;;;;;;;;;;5051194;28;20141;-62
2021/10/20 03:52:49;;;;;;;16.08;9.85;;;;;;;;;;5051438;28;20017;-63
2021/10/20 03:55:15;;;;;;;15.40;9.95;;;;;;;;;;5051441;28;20025;-63
2021/10/20 03:57:42;;;;;;;18.05;10.43;;;;;;;;;;5049977;28;20021;-63
2021/10/20 04:00:12;;;;;;;16.20;10.23;;;;;;;;;;5051280;28;20021;-62
2021/10/20 04:02:42;;;;;;;16.48;10.57;;;;;;;;;;5051489;28;20029;-63
2021/10/20 04:05:09;;;;;;;14.95;10.05;;;;;;;;;;5051173;28;20036;-63
2021/10/20 04:07:37;;;;;;;17.15;10.55;;;;;;;;;;5051037;28;20028;-63
2021/10/20 04:10:04;;;;;;;18.33;9.88;;;;;;;;;;5051268;28;20689;-63
2021/10/20 04:12:30;;;;;;;16.60;9.77;;;;;;;;;;5051182;28;20036;-63
2021/10/20 04:14:56;;;;;;;17.38;10.30;;;;;;;;;;5051125;28;20027;-63
2021/10/20 04:17:22;;;;;;;18.17;10.52;;;;;;;;;;5050776;28;20033;-63
2021/10/20 04:19:48;;;;;;;14.35;9.43;;;;;;;;;;5050686;28;20070;-63
2021/10/20 04:22:14;;;;;;;17.10;10.27;;;;;;;;;;5050701;28;20028;-63
2021/10/20 04:24:40;;;;;;;18.95;10.10;;;;;;;;;;5050695;28;20013;-63
2021/10/20 04:27:06;;;;;;;15.45;9.82;;;;;;;;;;5050797;28;20025;-64
2021/10/20 04:29:32;;;;;;;17.08;9.98;;;;;;;;;;5050811;28;20025;-63
2021/10/20 04:31:58;;;;;;;16.83;10.77;;;;;;;;;;5050823;28;20025;-63
2021/10/20 04:34:24;;;;;;;15.65;9.73;;;;;;;;;;5050309;28;20024;-63
2021/10/20 04:36:50;;;;;;;15.02;9.70;;;;;;;;;;5050734;28;20063;-63
2021/10/20 04:39:16;;;;;;;18.17;10.38;;;;;;;;;;5050757;28;20055;-64
2021/10/20 04:41:42;;;;;;;19.20;10.52;;;;;;;;;;5050668;28;20547;-63
2021/10/20 04:44:08;;;;;;;18.23;10.43;;;;;;;;;;5050759;28;20021;-64
2021/10/20 04:46:35;;;;;;;15.55;9.88;;;;;;;;;;5049279;28;20021;-63
2021/10/20 04:49:01;;;;;;;18.60;10.98;;;;;;;;;;5032497;28;20042;-63
2021/10/20 04:51:27;;;;;;;16.08;10.65;;;;;;;;;;5034313;28;20045;-62
2021/10/20 04:53:53;;;;;;;17.88;11.02;;;;;;;;;;5034297;28;20029;-63
2021/10/20 04:56:19;;;;;;;16.83;10.38;;;;;;;;;;5033231;28;20060;-65
2021/10/20 04:58:45;;;;;;;17.13;10.55;;;;;;;;;;5034432;28;20057;-62
2021/10/20 05:01:11;;;;;;;19.98;10.48;;;;;;;;;;5034324;28;20025;-63
2021/10/20 05:03:37;;;;;;;16.80;10.30;;;;;;;;;;5034463;28;20132;-63
2021/10/20 05:06:03;;;;;;;21.23;10.85;;;;;;;;;;5034373;28;20428;-63
2021/10/20 05:08:29;;;;;;;18.38;10.55;;;;;;;;;;5034466;28;20037;-63
2021/10/20 05:10:57;;;;;;;17.50;11.20;;;;;;;;;;5034182;28;20052;-63
2021/10/20 05:13:23;;;;;;;17.20;10.90;;;;;;;;;;5034295;28;20022;-63
2021/10/20 05:15:49;;;;;;;17.30;11.52;;;;;;;;;;5034078;28;20057;-63
2021/10/20 05:18:15;;;;;;;18.15;11.10;;;;;;;;;;5033767;28;20017;-64
2021/10/20 05:20:42;;;;;;;18.23;11.00;;;;;;;;;;5033884;28;20025;-64
2021/10/20 05:23:10;;;;;;;16.98;10.50;;;;;;;;;;5039659;28;20025;-63
2021/10/20 05:25:37;;;;;;;19.08;11.07;;;;;;;;;;5053647;28;20021;-63
2021/10/20 05:28:03;;;;;;;17.35;10.68;;;;;;;;;;5053824;28;20098;-63
2021/10/20 05:30:29;;;;;;;16.67;10.57;;;;;;;;;;5053397;28;20106;-63
2021/10/20 05:32:56;;;;;;;20.27;11.02;;;;;;;;;;5053831;28;20023;-63
2021/10/20 05:35:22;;;;;;;20.33;11.30;;;;;;;;;;5054333;28;20072;-63
2021/10/20 05:37:50;;;;;;;19.60;11.00;;;;;;;;;;5050731;28;20357;-62
2021/10/20 05:40:16;;;;;;;16.92;10.77;;;;;;;;;;5042548;28;20024;-63
2021/10/20 05:42:42;;;;;;;17.05;11.52;;;;;;;;;;5053485;28;20108;-63
2021/10/20 05:45:08;;;;;;;16.73;10.82;;;;;;;;;;5037494;28;20072;-62
2021/10/20 05:47:34;;;;;;;17.45;10.55;;;;;;;;;;5033480;28;20069;-63
2021/10/20 05:50:00;;;;;;;18.98;11.85;;;;;;;;;;5033229;28;20045;-63
2021/10/20 05:52:26;;;;;;;19.08;11.02;;;;;;;;;;5039461;28;20053;-63
2021/10/20 05:54:52;;;;;;;17.35;11.48;;;;;;;;;;5053332;28;20032;-63
2021/10/20 05:57:19;;;;;;;17.65;11.05;;;;;;;;;;5053211;28;20025;-63
2021/10/20 05:59:45;;;;;;;17.70;11.75;;;;;;;;;;5053086;28;20484;-63
2021/10/20 06:02:14;;;;;;;19.35;11.68;;;;;;;;;;5053428;28;20090;-63
2021/10/20 06:04:40;;;;;;;18.20;10.38;;;;;;;;;;5052057;28;20024;-63
2021/10/20 06:07:06;;;;;;;20.45;12.07;;;;;;;;;;5051726;28;20469;-62
2021/10/20 06:09:35;;;;;;;19.05;11.13;;;;;;;;;;5052274;28;20025;-63
2021/10/20 06:12:02;;;;;;;21.15;10.82;;;;;;;;;;5053345;28;20108;-63
2021/10/20 06:14:28;;;;;;;19.48;11.50;;;;;;;;;;5053179;28;20436;-63
2021/10/20 06:16:54;;;;;;;18.52;11.23;;;;;;;;;;5052972;28;20051;-63
2021/10/20 06:19:20;;;;;;;18.13;11.13;;;;;;;;;;5052819;28;20342;-64
2021/10/20 06:21:46;;;;;;;15.98;10.32;;;;;;;;;;5052212;28;20384;-63
2021/10/20 06:24:13;;;;;;;19.98;11.32;;;;;;;;;;5053924;28;20067;-63
2021/10/20 06:26:39;;;;;;;18.00;11.35;;;;;;;;;;5050448;28;20025;-63
2021/10/20 06:29:05;;;;;;;21.27;11.57;;;;;;;;;;5051479;28;20091;-63
2021/10/20 06:31:31;;;;;;;22.40;12.15;;;;;;;;;;5050029;28;20128;-63
2021/10/20 06:33:57;;;;;;;21.10;12.85;;;;;;;;;;5034147;28;20040;-63
2021/10/20 06:36:28;;;;;;;22.67;11.98;;;;;;;;;;5031677;28;20032;-63
2021/10/20 06:38:54;;;;;;;18.45;11.10;;;;;;;;;;5031792;28;20030;-63
2021/10/20 06:41:20;;;;;;;20.10;11.77;;;;;;;;;;5047346;28;20025;-62
2021/10/20 06:43:47;;;;;;;19.85;11.95;;;;;;;;;;5032459;28;20111;-63
2021/10/20 06:46:13;;;;;;;24.17;12.00;;;;;;;;;;5032341;28;20473;-63
2021/10/20 06:48:39;;;;;;;31.60;14.90;;;;;;;;;;5032258;28;20118;-63
2021/10/20 06:51:06;;;;;;;28.77;13.45;;;;;;;;;;5032368;28;20048;-65
2021/10/20 06:53:32;;;;;;;28.90;15.07;;;;;;;;;;5032696;28;20071;-62
2021/10/20 06:55:58;;;;;;;29.67;14.60;;;;;;;;;;5032369;28;20028;-62
2021/10/20 06:58:24;;;;;;;28.75;13.98;;;;;;;;;;5032347;28;20041;-63
2021/10/20 07:00:50;;;;;;;31.67;14.43;;;;;;;;;;5032605;28;20052;-63
2021/10/20 07:03:16;;;;;;;28.35;13.27;;;;;;;;;;5032012;28;20024;-63
2021/10/20 07:05:42;;;;;;;24.83;13.18;;;;;;;;;;5032052;28;20033;-62
2021/10/20 07:08:08;;;;;;;20.02;11.88;;;;;;;;;;5032006;28;20029;-63
2021/10/20 07:10:36;;;;;;;18.05;11.98;;;;;;;;;;5031204;28;20029;-63
2021/10/20 07:13:02;;;;;;;22.23;12.27;;;;;;;;;;5030999;28;20184;-62
2021/10/20 07:15:28;;;;;;;26.45;11.43;;;;;;;;;;5046656;28;20071;-63
2021/10/20 07:17:54;;;;;;;20.45;11.00;;;;;;;;;;5032351;28;20021;-63
2021/10/20 07:20:20;;;;;;;17.60;11.55;;;;;;;;;;5042430;28;20025;-65
2021/10/20 07:22:46;;;;;;;22.02;11.02;;;;;;;;;;5051083;28;20025;-64
2021/10/20 07:25:14;;;;;;;24.27;11.60;;;;;;;;;;5052397;28;20021;-64
2021/10/20 07:27:40;;;;;;;19.00;11.18;;;;;;;;;;5052267;28;20017;-65
2021/10/20 07:30:07;;;;;;;23.55;12.88;;;;;;;;;;5052331;28;20428;-64
2021/10/20 07:32:33;;;;;;;21.77;12.68;;;;;;;;;;5052519;28;20541;-64
2021/10/20 07:35:00;;;;;;;18.35;11.65;;;;;;;;;;5052206;28;20108;-64
2021/10/20 07:37:26;;;;;;;20.10;12.13;;;;;;;;;;5051879;28;20041;-66
2021/10/20 07:39:52;;;;;;;24.60;13.02;;;;;;;;;;5051926;28;20029;-66
2021/10/20 07:42:18;;;;;;;22.88;12.30;;;;;;;;;;5051937;28;20020;-63
2021/10/20 07:44:48;;;;;;;21.08;12.20;;;;;;;;;;5051944;28;20571;-64
2021/10/20 07:47:14;;;;;;;19.35;12.15;;;;;;;;;;5052093;28;20021;-64
2021/10/20 07:49:40;;;;;;;24.15;12.95;;;;;;;;;;5051856;28;20049;-64
2021/10/20 07:52:06;;;;;;;20.33;12.60;;;;;;;;;;5052147;28;20029;-64
2021/10/20 07:54:33;;;;;;;20.75;13.43;;;;;;;;;;5052062;28;20025;-65
2021/10/20 07:56:59;;;;;;;18.55;12.52;;;;;;;;;;5050846;28;20039;-64
2021/10/20 07:59:25;;;;;;;21.80;12.90;;;;;;;;;;5052307;28;20025;-64
2021/10/20 08:01:51;;;;;;;23.67;14.52;;;;;;;;;;5051846;28;20083;-63
2021/10/20 08:04:18;;;;;;;22.48;12.52;;;;;;;;;;5051955;28;20146;-65
2021/10/20 08:06:44;;;;;;;21.33;13.10;;;;;;;;;;5051902;28;20021;-64
2021/10/20 08:09:10;;;;;;;24.17;13.65;;;;;;;;;;5052134;28;20048;-64
2021/10/20 08:11:36;;;;;;;20.17;12.90;;;;;;;;;;5051976;28;20037;-66
2021/10/20 08:14:03;;;;;;;26.10;12.98;;;;;;;;;;5051981;28;20027;-67
2021/10/20 08:16:30;;;;;;;21.83;13.18;;;;;;;;;;5051867;28;20021;-64
2021/10/20 08:18:56;;;;;;;21.98;12.52;;;;;;;;;;5051871;28;20025;-63
2021/10/20 08:21:22;;;;;;;22.30;12.07;;;;;;;;;;5051900;28;20183;-64
2021/10/20 08:23:48;;;;;;;19.35;12.57;;;;;;;;;;5055359;28;20021;-66
2021/10/20 08:26:15;;;;;;;19.73;12.00;;;;;;;;;;5054658;28;20032;-63
2021/10/20 08:28:41;;;;;;;24.08;12.77;;;;;;;;;;5054521;28;20108;-64
2021/10/20 08:31:07;;;;;;;21.52;13.73;;;;;;;;;;5055728;28;20029;-64
2021/10/20 08:33:33;;;;;;;22.40;12.88;;;;;;;;;;5055856;28;20108;-64
2021/10/20 08:36:00;;;;;;;20.70;13.43;;;;;;;;;;5055739;28;20025;-63
2021/10/20 08:38:26;;;;;;;21.05;13.90;;;;;;;;;;5055700;28;20104;-64
2021/10/20 08:40:52;;;;;;;23.60;13.48;;;;;;;;;;5055692;28;20100;-64
2021/10/20 08:43:20;;;;;;;20.88;13.32;;;;;;;;;;5054421;28;20447;-63
2021/10/20 08:45:46;;;;;;;19.35;13.10;;;;;;;;;;5055548;28;20391;-63
2021/10/20 08:48:19;;;;;;;22.48;13.25;;;;;;;;;;5054992;28;20136;-65
2021/10/20 08:50:48;;;;;;;21.88;13.30;;;;;;;;;;5055355;28;20025;-66
2021/10/20 08:53:14;;;;;;;16.77;12.02;;;;;;;;;;5055458;28;20021;-66
2021/10/20 08:55:40;;;;;;;22.58;12.50;;;;;;;;;;5055315;28;20035;-65
2021/10/20 08:58:06;;;;;;;19.05;11.80;;;;;;;;;;5055162;28;20021;-64
2021/10/20 09:00:33;;;;;;;18.40;11.52;;;;;;;;;;5055186;28;20096;-63
2021/10/20 09:02:59;;;;;;;20.15;12.68;;;;;;;;;;5055138;28;20028;-66
2021/10/20 09:05:29;;;;;;;18.67;11.23;;;;;;;;;;5055124;28;20404;-66
2021/10/20 09:07:56;;;;;;;18.35;11.80;;;;;;;;;;5055213;28;20472;-63
2021/10/20 09:10:23;;;;;;;18.73;11.70;;;;;;;;;;5054944;28;20502;-64
2021/10/20 09:12:50;;;;;;;20.33;11.15;;;;;;;;;;5055261;28;20055;-66
2021/10/20 09:15:19;;;;;;;17.58;10.60;;;;;;;;;;5053806;28;20123;-65
2021/10/20 09:17:45;;;;;;;17.83;11.07;;;;;;;;;;5051845;28;20032;-67
2021/10/20 09:20:31;;;;;;;22.05;10.98;;;;;;;;;;5055091;28;20013;-65
2021/10/20 09:22:59;;;;;;;16.52;10.30;;;;;;;;;;5055039;28;20387;-66
2021/10/20 09:25:26;;;;;;;16.02;9.63;;;;;;;;;;5054955;28;20043;-65
2021/10/20 09:27:53;;;;;;;17.98;10.23;;;;;;;;;;5054918;28;20029;-64
2021/10/20 09:30:20;;;;;;;15.32;9.90;;;;;;;;;;5053500;28;20109;-66
2021/10/20 09:32:49;;;;;;;19.23;10.27;;;;;;;;;;5054818;28;20051;-65
2021/10/20 09:35:15;;;;;;;16.70;10.00;;;;;;;;;;5053804;28;20021;-65
2021/10/20 09:37:41;;;;;;;14.32;9.45;;;;;;;;;;5054800;28;20028;-67
2021/10/20 09:40:09;;;;;;;16.38;9.65;;;;;;;;;;5054676;28;20029;-64
2021/10/20 09:42:48;;;;;;;16.42;10.05;;;;;;;;;;5053402;28;20411;-64
2021/10/20 09:45:16;;;;;;;22.02;11.07;;;;;;;;;;5054458;28;20028;-65
2021/10/20 09:47:42;;;;;;;17.23;11.18;;;;;;;;;;5054171;28;20067;-64
2021/10/20 09:50:09;;;;;;;15.18;10.07;;;;;;;;;;5052720;28;20051;-66
2021/10/20 09:52:47;;;;;;;19.83;10.52;;;;;;;;;;5054337;28;20496;-65
2021/10/20 09:55:29;;;;;;;19.75;10.98;;;;;;;;;;5054151;28;20059;-64
2021/10/20 09:58:04;;;;;;;15.38;9.43;;;;;;;;;;5054174;28;20057;-66
2021/10/20 10:00:30;;;;;;;17.75;10.27;;;;;;;;;;5054165;28;20548;-66
2021/10/20 10:02:57;;;;;;;17.20;10.55;;;;;;;;;;5054063;28;20104;-65
2021/10/20 10:05:25;;;;;;;20.25;10.07;;;;;;;;;;5053828;28;20024;-65
2021/10/20 10:07:51;;;;;;;16.15;9.27;;;;;;;;;;5053824;28;20033;-67
2021/10/20 10:10:17;;;;;;;16.67;9.65;;;;;;;;;;5053876;28;20029;-64
2021/10/20 10:12:45;;;;;;;17.63;9.85;;;;;;;;;;5053972;28;20029;-67
2021/10/20 10:15:13;;;;;;;14.80;9.13;;;;;;;;;;5054144;28;20029;-66
2021/10/20 10:17:41;;;;;;;17.30;9.85;;;;;;;;;;5053875;28;20100;-65
2021/10/20 10:20:09;;;;;;;15.65;9.80;;;;;;;;;;5052657;28;20380;-64
2021/10/20 10:22:46;;;;;;;15.00;9.32;;;;;;;;;;5053791;28;20032;-65
2021/10/20 10:25:12;;;;;;;17.88;9.52;;;;;;;;;;5053652;28;20072;-65
2021/10/20 10:27:40;;;;;;;14.23;9.13;;;;;;;;;;5053481;28;20017;-64
2021/10/20 10:30:27;;;;;;;15.73;9.30;;;;;;;;;;5053607;28;20111;-64
2021/10/20 10:33:01;;;;;;;14.68;9.20;;;;;;;;;;5052169;28;20029;-65
2021/10/20 10:35:36;;;;;;;12.52;8.57;;;;;;;;;;5053664;28;20060;-67
2021/10/20 10:38:03;;;;;;;16.35;9.43;;;;;;;;;;5052250;28;20493;-67
2021/10/20 10:40:32;;;;;;;13.95;8.18;;;;;;;;;;5053409;28;20024;-64
2021/10/20 10:43:03;;;;;;;14.73;8.57;;;;;;;;;;5053329;28;20103;-64
2021/10/20 10:45:30;;;;;;;16.88;9.50;;;;;;;;;;5052009;28;20108;-64
2021/10/20 10:47:59;;;;;;;12.70;7.95;;;;;;;;;;5053296;28;20480;-63
2021/10/20 10:50:38;;;;;;;14.30;8.45;;;;;;;;;;5051806;28;20128;-63
2021/10/20 10:53:05;;;;;;;14.30;8.95;;;;;;;;;;5051983;28;20025;-64
2021/10/20 10:55:31;;;;;;;13.88;8.50;;;;;;;;;;5053212;28;20047;-64
2021/10/20 10:57:59;;;;;;;12.73;7.63;;;;;;;;;;5052897;28;20006;-64
2021/10/20 11:00:31;;;;;;;10.88;6.88;;;;;;;;;;5052938;28;20021;-64
2021/10/20 11:02:58;;;;;;;12.57;8.10;;;;;;;;;;5052908;28;20017;-64
2021/10/20 11:05:33;;;;;;;11.35;7.45;;;;;;;;;;5053128;28;20082;-64
2021/10/20 11:08:09;;;;;;;12.98;7.82;;;;;;;;;;5052670;28;20021;-66
2021/10/20 11:10:37;;;;;;;13.77;7.03;;;;;;;;;;5052729;28;20107;-63
2021/10/20 11:13:03;;;;;;;12.32;7.43;;;;;;;;;;5051383;28;20365;-64
2021/10/20 11:15:30;;;;;;;13.10;7.10;;;;;;;;;;5052560;28;20024;-66
2021/10/20 11:17:57;;;;;;;12.05;7.15;;;;;;;;;;5049081;28;20051;-63
2021/10/20 11:20:24;;;;;;;11.30;7.28;;;;;;;;;;5052469;28;20021;-63
2021/10/20 11:22:51;;;;;;;13.75;7.28;;;;;;;;;;5052451;28;20049;-63
2021/10/20 11:25:18;;;;;;;11.05;6.78;;;;;;;;;;5052365;28;20096;-64
2021/10/20 11:27:54;;;;;;;13.77;7.55;;;;;;;;;;5052414;28;20025;-65
2021/10/20 11:30:25;;;;;;;12.27;7.30;;;;;;;;;;5052391;28;20109;-63
2021/10/20 11:32:51;;;;;;;12.32;7.15;;;;;;;;;;5052134;28;20403;-64
2021/10/20 11:35:21;;;;;;;12.90;6.07;;;;;;;;;;5052355;28;20017;-67
2021/10/20 11:37:54;;;;;;;11.48;6.65;;;;;;;;;;5052364;28;20078;-64
2021/10/20 11:40:21;;;;;;;10.32;6.35;;;;;;;;;;5051077;28;20060;-64
2021/10/20 11:42:48;;;;;;;10.52;6.25;;;;;;;;;;5051063;28;20029;-64
2021/10/20 11:45:14;;;;;;;11.23;6.30;;;;;;;;;;5052220;28;20021;-66
2021/10/20 11:47:41;;;;;;;11.80;7.05;;;;;;;;;;5052134;28;20047;-66
2021/10/20 11:50:10;;;;;;;10.30;6.32;;;;;;;;;;5051902;28;20045;-64
2021/10/20 11:52:37;;;;;;;9.35;6.45;;;;;;;;;;5052002;28;20487;-64
2021/10/20 11:55:04;;;;;;;12.13;6.93;;;;;;;;;;5050563;28;20019;-64
2021/10/20 11:57:30;;;;;;;9.75;6.30;;;;;;;;;;5051516;28;20028;-64
2021/10/20 11:59:57;;;;;;;10.32;6.15;;;;;;;;;;5050879;28;20019;-67
2021/10/20 12:02:30;;;;;;;14.23;5.63;;;;;;;;;;5052051;28;20039;-66
2021/10/20 12:04:56;;;;;;;8.98;5.72;;;;;;;;;;5052006;28;20075;-64
2021/10/20 12:07:29;;;;;;;15.15;5.95;;;;;;;;;;5051915;28;20494;-63
2021/10/20 12:09:57;;;;;;;14.43;6.00;;;;;;;;;;5051903;28;20021;-65
2021/10/20 12:12:23;;;;;;;10.43;6.80;;;;;;;;;;5052175;28;20035;-67
2021/10/20 12:14:49;;;;;;;9.45;5.05;;;;;;;;;;5050817;28;20633;-66
2021/10/20 12:17:16;;;;;;;10.50;5.63;;;;;;;;;;5050613;28;20091;-65
2021/10/20 12:19:43;;;;;;;11.68;5.75;;;;;;;;;;5051862;28;20101;-66
2021/10/20 12:22:10;;;;;;;10.25;5.93;;;;;;;;;;5051913;28;20036;-63
2021/10/20 12:24:37;;;;;;;9.48;5.75;;;;;;;;;;5051917;28;20025;-66
2021/10/20 12:27:04;;;;;;;10.93;5.65;;;;;;;;;;5051625;28;20360;-64
2021/10/20 12:29:35;;;;;;;10.73;4.93;;;;;;;;;;5051636;28;20035;-63
2021/10/20 12:32:01;;;;;;;8.77;4.90;;;;;;;;;;5051876;28;20064;-66
2021/10/20 12:34:27;;;;;;;9.77;5.35;;;;;;;;;;5052058;28;20100;-63
2021/10/20 12:36:54;;;;;;;16.00;6.07;;;;;;;;;;5051775;28;20028;-64
2021/10/20 12:39:20;;;;;;;12.18;5.82;;;;;;;;;;5051627;28;20053;-64
2021/10/20 12:41:47;;;;;;;10.07;6.00;;;;;;;;;;5051402;28;20487;-64
2021/10/20 12:44:14;;;;;;;10.70;5.00;;;;;;;;;;5051471;28;20028;-66
2021/10/20 12:46:43;;;;;;;10.95;5.88;;;;;;;;;;5051344;28;20025;-65
2021/10/20 12:49:10;;;;;;;10.57;5.53;;;;;;;;;;5051579;28;20038;-67
2021/10/20 12:51:38;;;;;;;11.57;5.78;;;;;;;;;;5051964;28;20079;-63
2021/10/20 12:54:06;;;;;;;10.30;4.60;;;;;;;;;;5051493;28;20489;-63
2021/10/20 12:56:32;;;;;;;8.55;4.60;;;;;;;;;;5051567;28;20025;-66
2021/10/20 12:59:10;;;;;;;7.35;4.80;;;;;;;;;;5051428;28;20021;-63
2021/10/20 13:01:37;;;;;;;8.15;5.25;;;;;;;;;;5051528;28;20051;-66
2021/10/20 13:04:04;;;;;;;8.90;5.60;;;;;;;;;;5051442;28;20021;-64
2021/10/20 13:06:30;;;;;;;9.63;5.35;;;;;;;;;;5051407;28;20052;-64
2021/10/20 13:08:56;;;;;;;8.18;5.40;;;;;;;;;;5051687;28;20487;-63
2021/10/20 13:11:22;;;;;;;10.90;5.03;;;;;;;;;;5055016;28;20029;-63
2021/10/20 13:13:48;;;;;;;8.63;5.03;;;;;;;;;;5055016;28;20021;-63
2021/10/20 13:16:14;;;;;;;8.68;5.43;;;;;;;;;;5053021;28;20029;-63
2021/10/20 13:18:40;;;;;;;8.55;4.88;;;;;;;;;;5055133;28;20036;-63
2021/10/20 13:21:07;;;;;;;7.90;4.93;;;;;;;;;;5054903;28;20113;-64
2021/10/20 13:23:36;;;;;;;10.07;4.75;;;;;;;;;;5055094;28;20040;-64
2021/10/20 13:26:03;;;;;;;10.50;5.38;;;;;;;;;;5054705;28;20028;-63
2021/10/20 13:28:30;;;;;;;8.63;5.10;;;;;;;;;;5054733;28;20020;-63
2021/10/20 13:30:57;;;;;;;9.05;4.72;;;;;;;;;;5054657;28;20063;-64
2021/10/20 13:33:23;;;;;;;8.77;4.97;;;;;;;;;;5053043;28;20430;-63
2021/10/20 13:35:49;;;;;;;8.02;4.38;;;;;;;;;;5054514;28;20027;-64
2021/10/20 13:38:19;;;;;;;8.38;4.97;;;;;;;;;;5053223;28;20025;-65
2021/10/20 13:40:45;;;;;;;7.28;4.30;;;;;;;;;;5054845;28;20036;-64
2021/10/20 13:43:11;;;;;;;9.82;4.68;;;;;;;;;;5054750;28;20510;-64
2021/10/20 13:45:38;;;;;;;6.95;4.20;;;;;;;;;;5054499;28;20021;-65
2021/10/20 13:48:04;;;;;;;6.47;4.07;;;;;;;;;;5054472;28;20100;-64
2021/10/20 13:50:30;;;;;;;10.40;4.78;;;;;;;;;;5054077;28;20040;-64
2021/10/20 13:52:56;;;;;;;7.90;4.43;;;;;;;;;;5054349;28;20115;-66
2021/10/20 13:55:28;;;;;;;6.45;3.88;;;;;;;;;;5054197;28;20068;-66
2021/10/20 13:57:54;;;;;;;7.85;3.85;;;;;;;;;;5054006;28;20453;-64
2021/10/20 14:00:20;;;;;;;9.82;4.80;;;;;;;;;;5054110;28;20029;-65
2021/10/20 14:02:46;;;;;;;7.80;4.53;;;;;;;;;;5053075;28;20025;-64
2021/10/20 14:05:12;;;;;;;10.38;4.50;;;;;;;;;;5054094;28;20017;-66
2021/10/20 14:07:38;;;;;;;9.50;4.50;;;;;;;;;;5052707;28;20032;-66
2021/10/20 14:10:05;;;;;;;5.45;3.60;;;;;;;;;;5053937;28;20067;-66
2021/10/20 14:12:31;;;;;;;8.60;4.25;;;;;;;;;;5053841;28;20052;-68
2021/10/20 14:14:57;;;;;;;9.02;4.65;;;;;;;;;;5053646;28;20017;-66
2021/10/20 14:17:23;;;;;;;7.57;4.22;;;;;;;;;;5054096;28;20047;-63
2021/10/20 14:19:50;;;;;;;8.88;4.00;;;;;;;;;;5053452;28;20036;-64
2021/10/20 14:22:17;;;;;;;7.95;4.85;;;;;;;;;;5053926;28;20017;-64